createdAt,value
2023-01-28T00:01:30.806Z,3.05
2023-01-28T00:06:35.944Z,3.06
2023-01-28T00:11:39.774Z,3.06
2023-01-28T00:16:43.479Z,3.05
2023-01-28T00:21:48.594Z,3.02
2023-01-28T00:26:52.577Z,2.96
2023-01-28T00:31:58.942Z,2.99
2023-01-28T00:37:07.294Z,2.96
2023-01-28T00:42:11.073Z,2.95
2023-01-28T00:47:14.879Z,2.94
2023-01-28T00:52:19.987Z,2.93
2023-01-28T00:57:23.915Z,2.93
2023-01-28T01:02:27.922Z,2.91
2023-01-28T01:07:42.032Z,2.86
2023-01-28T01:12:48.206Z,2.80
2023-01-28T01:17:52.037Z,2.83
2023-01-28T01:22:57.670Z,2.81
2023-01-28T01:28:03.385Z,2.82
2023-01-28T01:33:07.289Z,2.81
2023-01-28T01:38:12.416Z,2.78
2023-01-28T01:43:18.640Z,2.78
2023-01-28T01:48:26.496Z,2.76
2023-01-28T01:53:33.581Z,2.75
2023-01-28T01:58:42.476Z,2.73
2023-01-28T02:03:54.367Z,2.72
2023-01-28T02:09:00.300Z,2.69
2023-01-28T02:14:07.621Z,2.70
2023-01-28T02:19:13.417Z,2.72
2023-01-28T02:24:52.909Z,2.74
2023-01-28T02:30:04.106Z,2.73
2023-01-28T02:35:15.309Z,2.73
2023-01-28T02:40:23.932Z,2.70
2023-01-28T02:45:47.886Z,2.71
2023-01-28T02:51:02.899Z,2.71
2023-01-28T02:56:18.968Z,2.68
2023-01-28T03:01:30.639Z,2.65
2023-01-28T03:06:39.222Z,2.65
2023-01-28T03:12:03.272Z,2.65
2023-01-28T03:17:32.387Z,2.61
2023-01-28T03:22:58.236Z,2.59
2023-01-28T03:28:23.876Z,2.56
2023-01-28T03:33:48.693Z,2.54
2023-01-28T03:38:52.967Z,2.52
2023-01-28T03:43:57.053Z,2.53
2023-01-28T03:49:02.340Z,2.52
2023-01-28T03:54:06.497Z,2.53
2023-01-28T03:59:10.501Z,2.53
2023-01-28T04:04:22.938Z,2.49
2023-01-28T04:09:27.163Z,2.48
2023-01-28T04:14:31.831Z,2.46
2023-01-28T04:19:41.810Z,2.45
2023-01-28T04:24:45.780Z,2.44
2023-01-28T04:29:49.610Z,2.42
2023-01-28T04:34:56.510Z,2.40
2023-01-28T04:40:00.607Z,2.40
2023-01-28T04:45:05.723Z,2.38
2023-01-28T04:50:11.696Z,2.35
2023-01-28T04:55:15.861Z,2.34
2023-01-28T05:00:20.620Z,2.35
2023-01-28T05:05:25.851Z,2.32
2023-01-28T05:10:30.358Z,2.31
2023-01-28T05:15:34.623Z,2.31
2023-01-28T05:20:39.836Z,2.28
2023-01-28T05:25:43.860Z,2.29
2023-01-28T05:30:49.787Z,2.25
2023-01-28T05:35:56.217Z,2.26
2023-01-28T05:41:00.184Z,2.26
2023-01-28T05:46:04.923Z,2.25
2023-01-28T05:51:10.342Z,2.24
2023-01-28T05:56:14.359Z,2.21
2023-01-28T06:01:18.577Z,2.22
2023-01-28T06:06:25.405Z,2.17
2023-01-28T06:11:29.475Z,2.18
2023-01-28T06:16:34.219Z,2.16
2023-01-28T06:21:43.253Z,2.17
2023-01-28T06:26:47.856Z,2.15
2023-01-28T06:31:52.145Z,2.13
2023-01-28T06:36:57.268Z,2.16
2023-01-28T06:42:01.105Z,2.16
2023-01-28T06:47:04.993Z,2.17
2023-01-28T06:52:10.160Z,2.18
2023-01-28T06:57:14.120Z,2.16
2023-01-28T07:02:17.939Z,2.19
2023-01-28T07:07:23.060Z,2.20
2023-01-28T07:12:26.920Z,2.19
2023-01-28T07:17:30.756Z,2.17
2023-01-28T07:22:36.019Z,2.17
2023-01-28T07:27:39.779Z,2.17
2023-01-28T07:32:43.674Z,2.13
2023-01-28T07:37:54.257Z,2.12
2023-01-28T07:42:58.257Z,2.09
2023-01-28T07:48:05.613Z,2.13
2023-01-28T07:53:12.883Z,2.13
2023-01-28T07:58:16.708Z,2.12
2023-01-28T08:03:22.622Z,2.12
2023-01-28T08:08:28.420Z,2.12
2023-01-28T08:13:32.163Z,2.12
2023-01-28T08:18:35.991Z,2.10
2023-01-28T08:23:41.067Z,2.12
2023-01-28T08:28:44.818Z,2.13
2023-01-28T08:33:48.584Z,2.15
2023-01-28T08:38:55.159Z,2.18
2023-01-28T08:43:58.973Z,2.17
2023-01-28T08:49:02.890Z,2.17
2023-01-28T08:54:10.261Z,2.16
2023-01-28T08:59:14.029Z,2.16
2023-01-28T09:04:19.828Z,2.16
2023-01-28T09:09:24.886Z,2.16
2023-01-28T09:14:28.668Z,2.13
2023-01-28T09:19:32.455Z,2.17
2023-01-28T09:24:38.988Z,2.22
2023-01-28T09:29:42.963Z,2.23
2023-01-28T09:34:46.829Z,2.28
2023-01-28T09:39:51.932Z,2.29
2023-01-28T09:45:04.122Z,2.29
2023-01-28T09:50:15.898Z,2.23
2023-01-28T09:55:30.467Z,2.18
2023-01-28T10:00:43.496Z,2.14
2023-01-28T10:05:59.291Z,2.13
2023-01-28T10:11:13.719Z,2.17
2023-01-28T10:16:25.706Z,2.17
2023-01-28T10:21:34.470Z,2.06
2023-01-28T10:26:42.746Z,2.19
2023-01-28T10:31:53.725Z,2.24
2023-01-28T10:36:58.761Z,2.26
2023-01-28T10:42:03.926Z,2.32
2023-01-28T10:47:13.775Z,2.39
2023-01-28T10:52:20.185Z,2.38
2023-01-28T10:57:25.423Z,2.47
2023-01-28T11:02:37.023Z,2.76
2023-01-28T11:07:40.878Z,3.01
2023-01-28T11:12:56.253Z,3.30
2023-01-28T11:18:04.000Z,3.40
2023-01-28T11:23:08.001Z,3.59
2023-01-28T11:28:20.504Z,3.73
2023-01-28T11:33:32.292Z,3.76
2023-01-28T11:38:36.445Z,3.91
2023-01-28T11:43:41.653Z,4.12
2023-01-28T11:48:55.143Z,4.35
2023-01-28T11:54:14.832Z,4.63
2023-01-28T11:59:38.093Z,4.71
2023-01-28T12:04:58.665Z,4.95
2023-01-28T12:10:10.812Z,5.00
2023-01-28T12:15:47.380Z,5.31
2023-01-28T12:20:57.288Z,5.50
2023-01-28T12:26:09.078Z,6.15
2023-01-28T12:31:36.437Z,6.24
2023-01-28T12:36:50.438Z,5.92
2023-01-28T12:42:05.397Z,6.00
2023-01-28T12:47:13.483Z,6.08
2023-01-28T12:52:21.212Z,6.35
2023-01-28T12:57:29.009Z,6.48
2023-01-28T13:02:40.450Z,7.33
2023-01-28T13:07:49.266Z,7.57
2023-01-28T13:12:54.650Z,7.84
2023-01-28T13:18:00.922Z,7.35
2023-01-28T13:23:07.585Z,6.99
2023-01-28T13:28:28.505Z,7.13
2023-01-28T13:33:35.682Z,6.98
2023-01-28T13:38:40.306Z,7.38
2023-01-28T13:43:44.138Z,7.68
2023-01-28T13:48:52.178Z,9.39
2023-01-28T13:54:01.734Z,9.29
2023-01-28T13:59:29.299Z,9.96
2023-01-28T14:05:00.203Z,9.30
2023-01-28T14:10:27.013Z,8.61
2023-01-28T14:16:15.039Z,7.45
2023-01-28T14:21:21.954Z,8.04
2023-01-28T14:26:33.176Z,8.49
2023-01-28T14:31:39.094Z,9.36
2023-01-28T14:36:46.633Z,9.29
2023-01-28T14:41:53.455Z,8.57
2023-01-28T14:47:18.588Z,8.39
2023-01-28T14:52:44.069Z,8.23
2023-01-28T14:57:53.140Z,7.86
2023-01-28T15:02:57.540Z,7.56
2023-01-28T15:08:02.726Z,7.18
2023-01-28T15:13:09.381Z,6.82
2023-01-28T15:18:18.520Z,6.46
2023-01-28T15:23:27.629Z,6.26
2023-01-28T15:28:34.159Z,6.13
2023-01-28T15:33:37.929Z,5.97
2023-01-28T15:38:43.074Z,5.89
2023-01-28T15:43:50.397Z,5.77
2023-01-28T15:49:05.335Z,5.70
2023-01-28T15:54:12.164Z,5.48
2023-01-28T15:59:20.882Z,5.43
2023-01-28T16:04:28.882Z,5.29
2023-01-28T16:09:36.083Z,5.28
2023-01-28T16:14:45.264Z,4.91
2023-01-28T16:19:52.204Z,5.00
2023-01-28T16:24:57.404Z,4.72
2023-01-28T16:30:02.261Z,4.37
2023-01-28T16:35:15.234Z,4.32
2023-01-28T16:40:22.995Z,4.19
2023-01-28T16:45:29.104Z,4.27
2023-01-28T16:50:33.664Z,4.23
2023-01-28T16:55:38.761Z,4.15
2023-01-28T17:00:42.575Z,4.09
2023-01-28T17:05:46.455Z,4.15
2023-01-28T17:10:54.974Z,3.82
2023-01-28T17:16:02.186Z,3.97
2023-01-28T17:21:07.828Z,3.91
2023-01-28T17:26:15.427Z,3.79
2023-01-28T17:31:19.345Z,3.88
2023-01-28T17:36:24.461Z,3.89
2023-01-28T17:41:29.695Z,3.60
2023-01-28T17:46:33.448Z,3.54
2023-01-28T17:51:37.256Z,3.48
2023-01-28T17:56:42.474Z,3.39
2023-01-28T18:01:47.450Z,3.21
2023-01-28T18:06:51.698Z,3.18
2023-01-28T18:11:56.930Z,3.04
2023-01-28T18:17:01.083Z,2.89
2023-01-28T18:22:04.883Z,2.87
2023-01-28T18:27:10.032Z,2.71
2023-01-28T18:32:13.784Z,2.59
2023-01-28T18:37:17.837Z,2.57
2023-01-28T18:42:25.041Z,2.35
2023-01-28T18:47:28.937Z,2.30
2023-01-28T18:52:32.711Z,2.19
2023-01-28T18:57:37.861Z,2.21
2023-01-28T19:02:41.611Z,2.10
2023-01-28T19:07:45.360Z,2.00
2023-01-28T19:12:50.517Z,1.92
2023-01-28T19:17:54.321Z,1.90
2023-01-28T19:22:58.152Z,1.85
2023-01-28T19:28:03.248Z,1.79
2023-01-28T19:33:07.769Z,1.70
2023-01-28T19:38:11.599Z,1.64
2023-01-28T19:43:16.799Z,1.69
2023-01-28T19:48:20.530Z,1.66
2023-01-28T19:53:24.449Z,1.65
2023-01-28T19:58:29.609Z,1.62
2023-01-28T20:03:33.744Z,1.64
2023-01-28T20:08:37.477Z,1.65
2023-01-28T20:13:44.698Z,1.68
2023-01-28T20:18:53.148Z,1.63
2023-01-28T20:23:59.290Z,1.54
2023-01-28T20:29:07.115Z,1.44
2023-01-28T20:34:16.023Z,1.37
2023-01-28T20:39:20.042Z,1.32
2023-01-28T20:44:26.675Z,1.37
2023-01-28T20:49:30.535Z,1.39
2023-01-28T20:54:34.336Z,1.33
2023-01-28T20:59:39.500Z,1.42
2023-01-28T21:04:43.258Z,1.43
2023-01-28T21:09:46.944Z,1.34
2023-01-28T21:14:54.261Z,1.36
2023-01-28T21:19:58.316Z,1.37
2023-01-28T21:25:05.311Z,1.43
2023-01-28T21:30:12.414Z,1.42
2023-01-28T21:35:16.379Z,1.44
2023-01-28T21:40:20.271Z,1.41
2023-01-28T21:45:25.596Z,1.39
2023-01-28T21:50:29.387Z,1.37
2023-01-28T21:55:34.441Z,1.36
2023-01-28T22:00:39.500Z,1.37
2023-01-28T22:05:43.892Z,1.27
2023-01-28T22:10:47.604Z,1.25
2023-01-28T22:15:52.792Z,1.23
2023-01-28T22:20:59.840Z,1.15
2023-01-28T22:26:03.729Z,1.13
2023-01-28T22:31:11.034Z,1.04
2023-01-28T22:36:16.550Z,0.99
2023-01-28T22:41:23.165Z,0.93
2023-01-28T22:46:29.251Z,0.91
2023-01-28T22:51:35.096Z,0.86
2023-01-28T22:56:40.172Z,0.82
2023-01-28T23:01:45.301Z,0.80
2023-01-28T23:06:49.104Z,0.73
2023-01-28T23:11:52.899Z,0.69
2023-01-28T23:17:15.653Z,0.58
2023-01-28T23:22:40.715Z,0.55
2023-01-28T23:27:44.966Z,0.42
2023-01-28T23:32:50.844Z,0.34
2023-01-28T23:37:55.665Z,0.24
2023-01-28T23:43:01.580Z,0.21
2023-01-28T23:48:06.730Z,0.21
2023-01-28T23:53:13.210Z,0.19
2023-01-28T23:58:26.572Z,0.24
